Time;durP1;ratioP1;P1;durP2;ratioP2;P2;SDS_P1;SDS_P2;PMS_P1;PMS_P2;Temp;Humidity;BMP_temperature;BMP_pressure;BME280_temperature;BME280_humidity;BME280_pressure;Samples;Min_cycle;Max_cycle;Signal;HPM_P1;HPM_P2
2022/05/30 00:00:14;;;;;;;;;;;7.50;99.90;;;;;;5107394;28;19904;-69
2022/05/30 00:02:40;;;;;;;;;;;7.40;99.90;;;;;;5108526;28;19907;-69
2022/05/30 00:05:06;;;;;;;;;;;7.40;99.90;;;;;;5108529;28;19922;-69
2022/05/30 00:07:31;;;;;;;;;;;7.40;99.90;;;;;;5110343;28;19961;-68
2022/05/30 00:09:57;;;;;;;;;;;7.40;99.90;;;;;;5111719;28;20264;-69
2022/05/30 00:12:22;;;;;;;;;;;7.40;99.90;;;;;;5112308;28;19945;-69
2022/05/30 00:14:48;;;;;;;;;;;7.30;99.90;;;;;;5111939;28;19911;-68
2022/05/30 00:17:13;;;;;;;;;;;7.20;99.90;;;;;;5111680;28;19903;-69
2022/05/30 00:19:39;;;;;;;;;;;7.00;99.90;;;;;;5110187;28;19931;-70
2022/05/30 00:22:05;;;;;;;;;;;6.90;99.90;;;;;;5108128;28;20280;-69
2022/05/30 00:24:31;;;;;;;;;;;6.80;99.90;;;;;;5108013;28;19911;-68
2022/05/30 00:26:57;;;;;;;;;;;6.70;99.90;;;;;;5108078;28;20016;-69
2022/05/30 00:29:23;;;;;;;;;;;6.70;99.90;;;;;;5110324;28;19912;-69
2022/05/30 00:31:48;;;;;;;;;;;6.70;99.90;;;;;;5111029;28;19907;-68
2022/05/30 00:34:14;;;;;;;;;;;6.70;99.90;;;;;;5111309;28;19998;-69
2022/05/30 00:36:39;;;;;;;;;;;6.80;99.90;;;;;;5110922;28;20295;-69
2022/05/30 00:39:05;;;;;;;;;;;6.80;99.90;;;;;;5111278;28;20343;-68
2022/05/30 00:41:30;;;;;;;;;;;6.90;99.90;;;;;;5111006;28;20288;-69
2022/05/30 00:43:56;;;;;;;;;;;6.90;99.90;;;;;;5111043;28;19908;-69
2022/05/30 00:46:22;;;;;;;;;;;6.90;99.90;;;;;;5110955;28;19964;-69
2022/05/30 00:48:49;;;;;;;;;;;6.90;99.90;;;;;;5110863;28;19903;-69
2022/05/30 00:51:16;;;;;;;;;;;6.90;99.90;;;;;;5110667;28;19912;-69
2022/05/30 00:53:44;;;;;;;;;;;6.90;99.90;;;;;;5110727;28;19915;-68
2022/05/30 00:56:10;;;;;;;;;;;6.80;99.90;;;;;;5110866;28;20007;-68
2022/05/30 00:58:37;;;;;;;;;;;6.80;99.90;;;;;;5110805;28;19998;-69
2022/05/30 01:01:04;;;;;;;;;;;6.80;99.90;;;;;;5111049;28;20361;-69
2022/05/30 01:06:32;;;;;;;;;;;6.70;99.90;;;;;;5107861;28;19919;-69
2022/05/30 01:08:59;;;;;;;;;;;6.60;99.90;;;;;;5106161;28;19904;-69
2022/05/30 01:11:24;;;;;;;;;;;6.50;99.90;;;;;;5108099;28;19953;-69
2022/05/30 01:13:50;;;;;;;;;;;6.40;99.90;;;;;;5110577;28;19904;-69
2022/05/30 01:16:15;;;;;;;;;;;6.30;99.90;;;;;;5110195;28;19903;-69
2022/05/30 01:18:52;;;;;;;;;;;6.20;99.90;;;;;;5092422;28;20010;-69
2022/05/30 01:21:27;;;;;;;;;;;6.20;99.90;;;;;;5110583;28;19908;-69
2022/05/30 01:24:04;;;;;;;;;;;6.10;99.90;;;;;;5110510;28;19908;-69
2022/05/30 01:26:56;;;;;;;;;;;6.10;99.90;;;;;;5109474;28;19908;-69
2022/05/30 01:29:31;;;;;;;;;;;6.10;99.90;;;;;;5107261;28;19904;-69
2022/05/30 01:31:56;;;;;;;;;;;6.10;99.90;;;;;;5110210;28;19919;-69
2022/05/30 01:34:23;;;;;;;;;;;6.10;99.90;;;;;;5110496;28;19912;-69
2022/05/30 01:36:48;;;;;;;;;;;6.10;99.90;;;;;;5110433;28;19961;-69
2022/05/30 01:39:14;;;;;;;;;;;6.10;99.90;;;;;;5110450;28;19908;-68
2022/05/30 01:41:39;;;;;;;;;;;6.10;99.90;;;;;;5110631;28;20366;-69
2022/05/30 01:44:05;;;;;;;;;;;6.00;99.90;;;;;;5113439;28;19910;-69
2022/05/30 01:46:31;;;;;;;;;;;6.00;99.90;;;;;;5103598;28;20280;-69
2022/05/30 01:48:56;;;;;;;;;;;5.90;99.90;;;;;;5110838;28;19994;-69
2022/05/30 01:51:22;;;;;;;;;;;5.80;99.90;;;;;;5110377;28;20008;-69
2022/05/30 01:53:48;;;;;;;;;;;5.80;99.90;;;;;;5110560;28;19908;-69
2022/05/30 01:56:14;;;;;;;;;;;5.80;99.90;;;;;;5092979;28;19907;-69
2022/05/30 01:58:39;;;;;;;;;;;5.70;99.90;;;;;;5092655;28;19994;-69
2022/05/30 02:01:05;;;;;;;;;;;5.80;99.90;;;;;;5110840;28;20434;-69
2022/05/30 02:03:33;;;;;;;;;;;5.80;99.90;;;;;;5110815;28;19911;-69
2022/05/30 02:05:59;;;;;;;;;;;5.90;99.90;;;;;;5113649;28;19914;-70
2022/05/30 02:08:25;;;;;;;;;;;6.00;99.90;;;;;;5114011;28;19908;-69
2022/05/30 02:10:50;;;;;;;;;;;6.00;99.90;;;;;;5113897;28;19904;-69
2022/05/30 02:13:16;;;;;;;;;;;6.00;99.90;;;;;;5113817;28;19904;-69
2022/05/30 02:18:26;;;;;;;;;;;5.90;99.90;;;;;;5113996;28;19927;-69
2022/05/30 02:20:51;;;;;;;;;;;5.90;99.90;;;;;;5113454;28;20272;-69
2022/05/30 02:23:17;;;;;;;;;;;5.90;99.90;;;;;;5113626;28;20430;-69
2022/05/30 02:25:44;;;;;;;;;;;5.80;99.90;;;;;;5113484;28;19907;-69
2022/05/30 02:28:09;;;;;;;;;;;5.90;99.90;;;;;;5110913;28;19918;-69
2022/05/30 02:30:35;;;;;;;;;;;5.80;99.90;;;;;;5110687;28;19904;-69
2022/05/30 02:38:29;;;;;;;;;;;5.80;99.90;;;;;;5112917;28;20562;-69
2022/05/30 02:40:54;;;;;;;;;;;5.80;99.90;;;;;;5113493;28;19904;-69
2022/05/30 02:43:20;;;;;;;;;;;5.80;99.90;;;;;;5113369;28;20351;-69
2022/05/30 02:45:46;;;;;;;;;;;5.80;99.90;;;;;;5113218;28;19927;-69
2022/05/30 02:48:12;;;;;;;;;;;5.80;99.90;;;;;;5111996;28;19956;-69
2022/05/30 02:50:38;;;;;;;;;;;5.80;99.90;;;;;;5112919;28;19987;-69
2022/05/30 02:53:03;;;;;;;;;;;5.90;99.90;;;;;;5112906;28;19920;-69
2022/05/30 02:55:29;;;;;;;;;;;5.90;99.90;;;;;;5111683;28;19903;-69
2022/05/30 02:57:54;;;;;;;;;;;6.00;99.90;;;;;;5112957;28;20291;-69
2022/05/30 03:00:20;;;;;;;;;;;6.00;99.90;;;;;;5112969;28;19939;-69
2022/05/30 03:02:45;;;;;;;;;;;6.00;99.90;;;;;;5112848;28;19911;-69
2022/05/30 03:05:11;;;;;;;;;;;6.00;99.90;;;;;;5112728;28;19903;-69
2022/05/30 03:07:36;;;;;;;;;;;6.10;99.90;;;;;;5112759;28;19903;-69
2022/05/30 03:10:02;;;;;;;;;;;6.10;99.90;;;;;;5112611;28;19904;-69
2022/05/30 03:12:28;;;;;;;;;;;6.10;99.90;;;;;;5113124;28;19926;-69
2022/05/30 03:14:53;;;;;;;;;;;6.10;99.90;;;;;;5112675;28;19919;-69
2022/05/30 03:17:19;;;;;;;;;;;6.10;99.90;;;;;;5112815;28;19915;-69
2022/05/30 03:19:44;;;;;;;;;;;6.00;99.90;;;;;;5112400;28;19946;-69
2022/05/30 03:22:10;;;;;;;;;;;5.90;99.90;;;;;;5112425;28;20405;-69
2022/05/30 03:24:35;;;;;;;;;;;5.80;99.90;;;;;;5112591;28;19903;-69
2022/05/30 03:27:01;;;;;;;;;;;5.80;99.90;;;;;;5112008;28;19956;-68
2022/05/30 03:29:26;;;;;;;;;;;5.70;99.90;;;;;;5112453;28;19930;-68
2022/05/30 03:31:53;;;;;;;;;;;5.70;99.90;;;;;;5112435;28;19986;-68
2022/05/30 03:34:18;;;;;;;;;;;5.70;99.90;;;;;;5112147;28;20376;-68
2022/05/30 03:36:44;;;;;;;;;;;5.70;99.90;;;;;;5112219;28;19911;-68
2022/05/30 03:39:09;;;;;;;;;;;5.70;99.90;;;;;;5112106;28;19903;-68
2022/05/30 03:41:35;;;;;;;;;;;5.70;99.90;;;;;;5112049;28;19911;-68
2022/05/30 03:44:00;;;;;;;;;;;5.70;99.90;;;;;;5112149;28;20377;-68
2022/05/30 03:46:30;;;;;;;;;;;5.60;99.90;;;;;;5112274;28;20364;-68
2022/05/30 03:48:56;;;;;;;;;;;5.40;99.90;;;;;;5111792;28;19904;-68
2022/05/30 03:51:21;;;;;;;;;;;5.30;99.90;;;;;;5111676;28;19914;-68
2022/05/30 03:53:47;;;;;;;;;;;5.20;99.90;;;;;;5111895;28;19991;-68
2022/05/30 03:56:12;;;;;;;;;;;5.10;99.90;;;;;;5111678;28;19957;-68
2022/05/30 03:58:38;;;;;;;;;;;5.00;99.90;;;;;;5111967;28;20303;-68
2022/05/30 04:01:05;;;;;;;;;;;5.00;99.90;;;;;;5111907;28;19960;-68
2022/05/30 04:03:31;;;;;;;;;;;5.00;99.90;;;;;;5112111;28;19916;-68
2022/05/30 04:05:56;;;;;;;;;;;5.00;99.90;;;;;;5110997;28;20327;-68
2022/05/30 04:08:22;;;;;;;;;;;5.00;99.90;;;;;;5111613;28;19911;-68
2022/05/30 04:10:47;;;;;;;;;;;5.10;99.90;;;;;;5111688;28;20006;-68
2022/05/30 04:13:13;;;;;;;;;;;5.20;99.90;;;;;;5093336;28;19966;-68
2022/05/30 04:15:38;;;;;;;;;;;5.20;99.90;;;;;;5110692;28;19942;-68
2022/05/30 04:18:05;;;;;;;;;;;5.30;99.90;;;;;;5108234;28;19994;-68
2022/05/30 04:20:30;;;;;;;;;;;5.40;99.90;;;;;;5108155;28;20389;-68
2022/05/30 04:22:56;;;;;;;;;;;5.40;99.90;;;;;;5111200;28;20416;-68
2022/05/30 04:25:22;;;;;;;;;;;5.40;99.90;;;;;;5111410;28;20358;-68
2022/05/30 04:27:47;;;;;;;;;;;5.50;99.90;;;;;;5111211;28;19910;-67
2022/05/30 04:30:13;;;;;;;;;;;5.50;99.90;;;;;;5111144;28;20331;-67
2022/05/30 04:32:38;;;;;;;;;;;5.70;99.90;;;;;;5108151;28;19911;-67
2022/05/30 04:35:05;;;;;;;;;;;5.80;99.90;;;;;;5108014;28;19918;-68
2022/05/30 04:37:31;;;;;;;;;;;5.80;99.90;;;;;;5109447;28;19907;-68
2022/05/30 04:39:56;;;;;;;;;;;5.90;99.90;;;;;;5111129;28;20336;-68
2022/05/30 04:42:22;;;;;;;;;;;6.10;99.90;;;;;;5111251;28;19914;-68
2022/05/30 04:44:47;;;;;;;;;;;6.10;99.90;;;;;;5111180;28;20400;-68
2022/05/30 04:47:13;;;;;;;;;;;6.20;99.90;;;;;;5111272;28;19914;-68
2022/05/30 04:49:39;;;;;;;;;;;6.20;99.90;;;;;;5110693;28;20271;-67
2022/05/30 04:52:05;;;;;;;;;;;6.10;99.90;;;;;;5111055;28;19903;-67
2022/05/30 04:54:31;;;;;;;;;;;6.00;99.90;;;;;;5111075;28;19948;-68
2022/05/30 04:56:56;;;;;;;;;;;5.90;99.90;;;;;;5110924;28;19948;-67
2022/05/30 04:59:22;;;;;;;;;;;5.90;99.90;;;;;;5108575;28;19915;-67
2022/05/30 05:01:48;;;;;;;;;;;6.00;99.90;;;;;;5107591;28;19915;-67
2022/05/30 05:04:14;;;;;;;;;;;6.00;99.90;;;;;;5107437;28;20118;-67
2022/05/30 05:06:43;;;;;;;;;;;6.20;99.90;;;;;;5107877;28;19951;-67
2022/05/30 05:09:14;;;;;;;;;;;6.20;99.90;;;;;;5111103;28;19904;-69
2022/05/30 05:11:40;;;;;;;;;;;6.30;99.90;;;;;;5107555;28;19919;-69
2022/05/30 05:14:05;;;;;;;;;;;6.40;99.90;;;;;;5108120;28;19907;-69
2022/05/30 05:16:31;;;;;;;;;;;6.50;99.90;;;;;;5107199;28;19908;-69
2022/05/30 05:18:57;;;;;;;;;;;6.50;99.90;;;;;;5110735;28;20408;-69
2022/05/30 05:21:24;;;;;;;;;;;6.60;99.90;;;;;;5112322;28;19920;-69
2022/05/30 05:23:50;;;;;;;;;;;6.70;99.90;;;;;;5114758;28;19916;-69
2022/05/30 05:26:16;;;;;;;;;;;6.80;99.90;;;;;;5114717;28;19904;-69
2022/05/30 05:28:42;;;;;;;;;;;6.80;99.90;;;;;;5115064;28;19911;-69
2022/05/30 05:31:08;;;;;;;;;;;6.80;99.90;;;;;;5112523;28;20288;-69
2022/05/30 05:33:34;;;;;;;;;;;6.90;99.90;;;;;;5110887;28;19920;-69
2022/05/30 05:35:59;;;;;;;;;;;6.90;99.90;;;;;;5111054;28;20375;-69
2022/05/30 05:38:25;;;;;;;;;;;7.00;99.90;;;;;;5111886;28;19919;-69
2022/05/30 05:40:52;;;;;;;;;;;7.10;99.90;;;;;;5114297;28;19926;-69
2022/05/30 05:43:18;;;;;;;;;;;7.10;99.90;;;;;;5114389;28;19912;-69
2022/05/30 05:45:44;;;;;;;;;;;7.10;99.90;;;;;;5113855;28;19919;-69
2022/05/30 05:48:10;;;;;;;;;;;7.20;99.90;;;;;;5110561;28;20348;-69
2022/05/30 05:50:43;;;;;;;;;;;7.30;99.90;;;;;;5110749;28;20272;-69
2022/05/30 05:53:09;;;;;;;;;;;7.40;99.90;;;;;;5111470;27;19914;-69
2022/05/30 05:55:35;;;;;;;;;;;7.50;99.90;;;;;;5111295;28;19911;-69
2022/05/30 05:58:00;;;;;;;;;;;7.70;99.90;;;;;;5114191;28;19912;-69
2022/05/30 06:00:26;;;;;;;;;;;7.80;99.90;;;;;;5095785;28;19915;-69
2022/05/30 06:02:52;;;;;;;;;;;8.00;99.90;;;;;;5089501;28;20380;-69
2022/05/30 06:05:17;;;;;;;;;;;8.10;99.90;;;;;;5089286;28;19969;-69
2022/05/30 06:07:44;;;;;;;;;;;8.30;99.90;;;;;;5090706;28;19947;-69
2022/05/30 06:10:10;;;;;;;;;;;8.40;99.90;;;;;;5090614;28;20003;-69
2022/05/30 06:12:37;;;;;;;;;;;8.50;99.90;;;;;;5090801;28;19954;-69
2022/05/30 06:15:03;;;;;;;;;;;8.70;99.90;;;;;;5093288;28;19912;-69
2022/05/30 06:17:32;;;;;;;;;;;8.90;99.90;;;;;;5093376;28;19914;-69
2022/05/30 06:19:58;;;;;;;;;;;9.10;99.90;;;;;;5106240;28;20271;-69
2022/05/30 06:22:24;;;;;;;;;;;9.20;99.90;;;;;;5113674;28;19920;-69
2022/05/30 06:24:49;;;;;;;;;;;9.40;99.90;;;;;;5110482;28;19929;-69
2022/05/30 06:27:17;;;;;;;;;;;9.70;99.90;;;;;;5110587;28;19911;-69
2022/05/30 06:29:42;;;;;;;;;;;9.80;99.90;;;;;;5112849;28;19949;-69
2022/05/30 06:32:08;;;;;;;;;;;10.00;99.90;;;;;;5110430;28;19907;-69
2022/05/30 06:34:34;;;;;;;;;;;10.20;99.90;;;;;;5116301;27;19930;-68
2022/05/30 06:36:59;;;;;;;;;;;10.40;99.90;;;;;;5132900;27;19908;-68
2022/05/30 06:39:27;;;;;;;;;;;10.60;99.90;;;;;;5150186;27;19998;-68
2022/05/30 06:41:53;;;;;;;;;;;10.80;99.90;;;;;;5133776;27;19948;-68
2022/05/30 06:44:19;;;;;;;;;;;11.00;99.90;;;;;;5133881;27;19946;-68
2022/05/30 06:46:44;;;;;;;;;;;11.10;99.90;;;;;;5133711;27;19910;-68
2022/05/30 06:49:10;;;;;;;;;;;11.30;99.90;;;;;;5127408;27;19914;-68
2022/05/30 06:51:36;;;;;;;;;;;11.40;99.90;;;;;;5113052;28;19908;-67
2022/05/30 06:54:03;;;;;;;;;;;11.60;99.90;;;;;;5113520;28;19947;-67
2022/05/30 06:56:30;;;;;;;;;;;11.80;99.90;;;;;;5112915;28;19923;-67
2022/05/30 06:58:56;;;;;;;;;;;11.70;99.90;;;;;;5113128;28;20285;-68
2022/05/30 07:01:23;;;;;;;;;;;11.80;99.90;;;;;;5112139;28;19907;-68
2022/05/30 07:03:49;;;;;;;;;;;12.00;99.90;;;;;;5109906;27;19920;-68
2022/05/30 07:06:17;;;;;;;;;;;12.30;99.90;;;;;;5109738;28;20003;-68
2022/05/30 07:08:45;;;;;;;;;;;12.40;99.90;;;;;;5112460;28;20032;-68
2022/05/30 07:11:15;;;;;;;;;;;12.70;99.90;;;;;;5112664;28;19910;-67
2022/05/30 07:13:41;;;;;;;;;;;13.00;99.90;;;;;;5112658;28;20297;-67
2022/05/30 07:16:09;;;;;;;;;;;13.20;99.90;;;;;;5112854;28;20233;-68
2022/05/30 07:18:35;;;;;;;;;;;13.40;99.90;;;;;;5112871;28;20387;-67
2022/05/30 07:21:03;;;;;;;;;;;13.70;99.90;;;;;;5112750;28;19998;-68
2022/05/30 07:23:29;;;;;;;;;;;14.10;99.90;;;;;;5112761;28;19965;-68
2022/05/30 07:25:59;;;;;;;;;;;14.20;99.90;;;;;;5112256;28;20299;-68
2022/05/30 07:28:25;;;;;;;;;;;14.30;99.90;;;;;;5112539;28;20006;-68
2022/05/30 07:30:51;;;;;;;;;;;14.40;99.90;;;;;;5112430;28;20271;-67
2022/05/30 07:33:17;;;;;;;;;;;14.50;99.90;;;;;;5111993;28;20368;-69
2022/05/30 07:35:43;;;;;;;;;;;14.30;99.90;;;;;;5101626;28;19904;-68
2022/05/30 07:38:09;;;;;;;;;;;14.20;99.90;;;;;;5112534;28;19908;-68
2022/05/30 07:40:34;;;;;;;;;;;14.10;99.90;;;;;;5111642;28;19923;-69
2022/05/30 07:43:00;;;;;;;;;;;14.10;99.90;;;;;;5112528;28;20070;-68
2022/05/30 07:45:25;;;;;;;;;;;14.70;99.90;;;;;;5094089;28;19904;-69
2022/05/30 07:47:51;;;;;;;;;;;15.40;99.90;;;;;;5112516;28;19903;-69
2022/05/30 07:50:17;;;;;;;;;;;15.90;97.20;;;;;;5112092;28;19907;-69
2022/05/30 07:52:42;;;;;;;;;;;16.20;96.60;;;;;;5112297;28;19910;-69
2022/05/30 07:55:08;;;;;;;;;;;16.70;96.00;;;;;;5111685;28;19910;-69
2022/05/30 07:57:51;;;;;;;;;;;17.30;95.60;;;;;;5112275;28;19911;-69
2022/05/30 08:00:18;;;;;;;;;;;18.10;92.90;;;;;;5111716;28;19904;-68
2022/05/30 08:02:44;;;;;;;;;;;18.00;91.50;;;;;;5109275;28;20513;-68
2022/05/30 08:05:11;;;;;;;;;;;18.10;92.90;;;;;;5108993;28;19911;-68
2022/05/30 08:07:37;;;;;;;;;;;18.40;92.00;;;;;;5111706;28;20324;-68
2022/05/30 08:10:04;;;;;;;;;;;18.60;90.40;;;;;;5111825;28;20003;-68
2022/05/30 08:12:30;;;;;;;;;;;18.00;90.70;;;;;;5111708;28;19904;-68
2022/05/30 08:14:56;;;;;;;;;;;18.10;88.90;;;;;;5111960;28;19949;-68
2022/05/30 08:17:21;;;;;;;;;;;18.50;88.70;;;;;;5093653;28;19916;-70
2022/05/30 08:19:47;;;;;;;;;;;18.70;88.20;;;;;;5111883;28;20351;-68
2022/05/30 08:22:13;;;;;;;;;;;18.40;88.30;;;;;;5112114;28;20013;-69
2022/05/30 08:24:40;;;;;;;;;;;18.80;87.20;;;;;;5109556;28;20242;-68
2022/05/30 08:27:06;;;;;;;;;;;20.10;83.40;;;;;;5108661;28;19904;-69
2022/05/30 08:29:32;;;;;;;;;;;19.90;78.20;;;;;;5110943;28;20018;-65
2022/05/30 08:31:58;;;;;;;;;;;20.10;76.60;;;;;;5111594;28;19922;-68
2022/05/30 08:34:23;;;;;;;;;;;20.50;75.60;;;;;;5111474;28;19915;-68
2022/05/30 08:36:49;;;;;;;;;;;20.80;74.00;;;;;;5111407;28;20272;-67
2022/05/30 08:42:00;;;;;;;;;;;20.70;74.10;;;;;;5111606;28;19980;-67
2022/05/30 08:44:29;;;;;;;;;;;20.40;70.50;;;;;;5111471;28;20410;-67
2022/05/30 08:46:58;;;;;;;;;;;20.20;73.00;;;;;;5111457;28;19915;-68
2022/05/30 08:49:34;;;;;;;;;;;20.20;71.30;;;;;;5108493;28;19911;-68
2022/05/30 08:51:59;;;;;;;;;;;20.80;72.10;;;;;;5107386;28;19936;-67
2022/05/30 08:54:25;;;;;;;;;;;21.10;68.40;;;;;;5108125;28;19923;-67
2022/05/30 08:56:52;;;;;;;;;;;20.90;70.00;;;;;;5111290;28;19904;-68
2022/05/30 08:59:17;;;;;;;;;;;20.20;71.10;;;;;;5109920;28;20355;-66
2022/05/30 09:01:49;;;;;;;;;;;19.90;72.90;;;;;;5111133;28;19929;-65
2022/05/30 09:04:36;;;;;;;;;;;19.50;77.00;;;;;;5111214;28;20391;-67
2022/05/30 09:07:03;;;;;;;;;;;19.50;78.50;;;;;;5111108;28;19952;-62
2022/05/30 09:09:29;;;;;;;;;;;19.60;78.60;;;;;;5111274;28;20320;-65
2022/05/30 09:12:08;;;;;;;;;;;19.20;80.10;;;;;;5110971;28;20425;-66
2022/05/30 09:14:40;;;;;;;;;;;18.70;83.10;;;;;;5110474;28;19911;-68
2022/05/30 09:17:09;;;;;;;;;;;18.50;83.50;;;;;;5108109;28;19998;-64
2022/05/30 09:19:35;;;;;;;;;;;18.40;87.60;;;;;;5108436;28;19918;-66
2022/05/30 09:22:05;;;;;;;;;;;18.80;85.70;;;;;;5111071;28;19912;-68
2022/05/30 09:24:32;;;;;;;;;;;19.20;81.30;;;;;;5108643;28;19903;-64
2022/05/30 09:26:59;;;;;;;;;;;19.80;83.40;;;;;;5107925;28;20299;-65
2022/05/30 09:29:30;;;;;;;;;;;20.80;77.30;;;;;;5108379;28;19915;-64
2022/05/30 09:31:56;;;;;;;;;;;20.90;73.20;;;;;;5108410;28;19915;-67
2022/05/30 09:34:27;;;;;;;;;;;20.40;72.20;;;;;;5105913;28;20119;-67
2022/05/30 09:36:53;;;;;;;;;;;21.70;71.10;;;;;;5109266;28;19918;-68
2022/05/30 09:39:18;;;;;;;;;;;22.50;67.90;;;;;;5107800;28;19908;-67
2022/05/30 09:41:44;;;;;;;;;;;22.60;65.60;;;;;;5107550;28;19918;-68
2022/05/30 09:44:09;;;;;;;;;;;21.30;65.90;;;;;;5109576;28;20333;-64
2022/05/30 09:46:38;;;;;;;;;;;20.90;66.80;;;;;;5110787;28;19915;-62
2022/05/30 09:49:05;;;;;;;;;;;20.70;66.60;;;;;;5111016;28;19908;-64
2022/05/30 09:51:31;;;;;;;;;;;20.80;67.60;;;;;;5110736;28;20007;-64
2022/05/30 09:53:56;;;;;;;;;;;21.30;66.30;;;;;;5110853;28;19943;-64
2022/05/30 09:56:23;;;;;;;;;;;21.90;63.40;;;;;;5110621;28;19956;-64
2022/05/30 09:59:00;;;;;;;;;;;20.90;63.70;;;;;;5108255;28;19925;-65
2022/05/30 10:01:27;;;;;;;;;;;20.60;67.20;;;;;;5107551;28;19903;-64
2022/05/30 10:03:59;;;;;;;;;;;20.60;68.20;;;;;;5108148;28;19943;-64
2022/05/30 10:06:26;;;;;;;;;;;20.60;68.20;;;;;;5111391;28;19908;-66
2022/05/30 10:09:07;;;;;;;;;;;21.10;66.90;;;;;;5114233;28;19929;-64
2022/05/30 10:11:34;;;;;;;;;;;22.30;64.20;;;;;;5111581;28;19931;-64
2022/05/30 10:14:15;;;;;;;;;;;22.70;63.10;;;;;;5114357;28;19922;-64
2022/05/30 10:16:42;;;;;;;;;;;24.10;59.60;;;;;;5114483;28;19903;-65
2022/05/30 10:19:09;;;;;;;;;;;24.90;54.70;;;;;;5113761;28;19925;-64
2022/05/30 10:30:33;;;;;;;;;;;22.50;52.10;;;;;;5113923;28;20268;-63
2022/05/30 10:33:05;;;;;;;;;;;21.20;54.00;;;;;;5095878;28;19911;-64
2022/05/30 10:35:36;;;;;;;;;;;21.70;56.80;;;;;;5093246;28;19904;-64
2022/05/30 10:38:04;;;;;;;;;;;21.70;60.60;;;;;;5093477;28;19948;-63
2022/05/30 10:40:44;;;;;;;;;;;22.70;57.80;;;;;;5093587;28;20353;-62
2022/05/30 10:43:13;;;;;;;;;;;22.50;55.20;;;;;;5093671;28;19916;-62
2022/05/30 10:45:41;;;;;;;;;;;20.30;59.50;;;;;;5093392;28;20288;-61
2022/05/30 10:48:09;;;;;;;;;;;20.20;66.30;;;;;;5092904;28;19904;-61
2022/05/30 10:50:43;;;;;;;;;;;19.80;67.50;;;;;;5111209;28;20376;-62
2022/05/30 10:53:12;;;;;;;;;;;20.10;66.20;;;;;;5113711;28;19911;-62
2022/05/30 10:55:40;;;;;;;;;;;19.70;64.70;;;;;;5113518;28;19935;-62
2022/05/30 10:58:13;;;;;;;;;;;19.70;66.70;;;;;;5108117;28;19907;-63
2022/05/30 11:00:46;;;;;;;;;;;19.40;67.30;;;;;;5110239;28;19938;-68
2022/05/30 11:03:21;;;;;;;;;;;19.60;70.80;;;;;;5111850;28;19996;-69
2022/05/30 11:06:06;;;;;;;;;;;19.50;70.80;;;;;;5092524;28;19991;-68
2022/05/30 11:08:34;;;;;;;;;;;19.10;71.40;;;;;;5092913;28;19990;-68
2022/05/30 11:11:06;;;;;;;;;;;19.00;74.00;;;;;;5092921;28;19904;-66
2022/05/30 11:13:44;;;;;;;;;;;18.90;73.20;;;;;;5104405;28;19911;-67
2022/05/30 11:16:28;;;;;;;;;;;19.60;75.00;;;;;;5108674;28;19907;-65
2022/05/30 11:19:02;;;;;;;;;;;19.90;72.20;;;;;;5109764;28;19931;-66
2022/05/30 11:21:34;;;;;;;;;;;20.30;70.80;;;;;;5111940;27;19904;-66
2022/05/30 11:24:01;;;;;;;;;;;20.30;72.10;;;;;;5108779;28;19915;-64
2022/05/30 11:26:26;;;;;;;;;;;20.60;73.30;;;;;;5107352;28;19908;-65
2022/05/30 11:29:03;;;;;;;;;;;22.10;67.40;;;;;;5109565;28;19949;-65
2022/05/30 11:31:46;;;;;;;;;;;25.10;59.70;;;;;;5109345;28;19994;-65
2022/05/30 11:34:27;;;;;;;;;;;26.80;48.60;;;;;;5109082;28;19916;-65
2022/05/30 11:36:55;;;;;;;;;;;24.90;46.40;;;;;;5108506;28;19907;-64
2022/05/30 11:39:24;;;;;;;;;;;24.40;48.30;;;;;;5109217;28;19943;-66
2022/05/30 11:42:09;;;;;;;;;;;24.20;49.40;;;;;;5109344;28;19911;-66
2022/05/30 11:44:43;;;;;;;;;;;22.60;52.10;;;;;;5109370;28;19915;-65
2022/05/30 11:47:18;;;;;;;;;;;20.90;55.90;;;;;;5109626;28;20424;-66
2022/05/30 11:49:43;;;;;;;;;;;20.30;61.00;;;;;;5109430;28;19915;-65
2022/05/30 11:52:10;;;;;;;;;;;20.70;63.30;;;;;;5109262;28;19958;-65
2022/05/30 11:54:36;;;;;;;;;;;21.30;62.50;;;;;;5109331;28;19915;-65
2022/05/30 11:57:01;;;;;;;;;;;21.70;60.50;;;;;;5093787;28;19911;-65
2022/05/30 11:59:27;;;;;;;;;;;21.40;58.80;;;;;;5088779;28;20453;-64
2022/05/30 12:01:54;;;;;;;;;;;21.20;59.20;;;;;;5088505;28;19911;-65
2022/05/30 12:04:22;;;;;;;;;;;21.40;60.30;;;;;;5088465;28;19922;-65
2022/05/30 12:07:07;;;;;;;;;;;21.00;60.40;;;;;;5088591;28;19923;-66
2022/05/30 12:09:33;;;;;;;;;;;20.40;61.20;;;;;;5088817;28;19916;-64
2022/05/30 12:12:11;;;;;;;;;;;20.10;66.40;;;;;;5089021;28;19904;-64
2022/05/30 12:14:56;;;;;;;;;;;20.10;66.10;;;;;;5088729;28;19911;-64
2022/05/30 12:23:47;;;;;;;;;;;20.00;67.80;;;;;;5088795;28;19904;-64
2022/05/30 12:26:01;;;;;;;;;;;20.50;70.40;;;;;;5108829;28;19956;-63
2022/05/30 12:28:27;;;;;;;;;;;20.00;67.00;;;;;;5108977;28;19907;-66
2022/05/30 12:30:54;;;;;;;;;;;19.80;66.90;;;;;;5108780;28;20367;-66
2022/05/30 12:33:28;;;;;;;;;;;20.20;65.60;;;;;;5108659;28;19919;-66
2022/05/30 12:36:05;;;;;;;;;;;20.40;66.70;;;;;;5108355;28;19915;-64
2022/05/30 12:39:00;;;;;;;;;;;20.50;65.10;;;;;;5108586;28;19904;-67
2022/05/30 12:41:26;;;;;;;;;;;21.90;65.30;;;;;;5094869;28;19975;-67
2022/05/30 12:43:52;;;;;;;;;;;23.90;59.00;;;;;;5108535;28;20305;-67
2022/05/30 12:46:19;;;;;;;;;;;25.00;52.60;;;;;;5108344;28;20341;-67
2022/05/30 12:49:05;;;;;;;;;;;25.20;47.30;;;;;;5108169;28;19955;-67
2022/05/30 12:51:39;;;;;;;;;;;25.70;44.50;;;;;;5107647;28;20337;-67
2022/05/30 12:54:05;;;;;;;;;;;26.00;42.40;;;;;;5108200;28;20002;-66
2022/05/30 12:56:36;;;;;;;;;;;26.80;38.80;;;;;;5108223;28;19994;-67
2022/05/30 12:59:02;;;;;;;;;;;25.80;40.10;;;;;;5108371;28;20033;-67
2022/05/30 13:01:28;;;;;;;;;;;24.90;41.00;;;;;;5108046;28;20309;-67
2022/05/30 13:04:05;;;;;;;;;;;23.40;41.60;;;;;;5106910;28;20340;-67
2022/05/30 13:06:31;;;;;;;;;;;23.20;44.60;;;;;;5108075;28;20158;-68
2022/05/30 13:09:00;;;;;;;;;;;23.40;47.30;;;;;;5108086;28;20002;-68
2022/05/30 13:11:32;;;;;;;;;;;22.80;46.10;;;;;;5104746;28;19918;-66
2022/05/30 13:14:17;;;;;;;;;;;22.40;49.20;;;;;;5106214;28;19911;-68
2022/05/30 13:16:43;;;;;;;;;;;21.00;50.90;;;;;;5103573;28;19930;-66
2022/05/30 13:19:10;;;;;;;;;;;20.60;55.50;;;;;;5099987;28;19904;-67
2022/05/30 13:21:38;;;;;;;;;;;20.50;58.20;;;;;;5107296;28;19911;-68
2022/05/30 13:24:23;;;;;;;;;;;20.40;58.80;;;;;;5107463;28;19915;-66
2022/05/30 13:26:49;;;;;;;;;;;21.70;55.50;;;;;;5090695;28;20368;-66
2022/05/30 13:29:15;;;;;;;;;;;22.70;51.90;;;;;;5107794;28;19927;-67
2022/05/30 13:31:40;;;;;;;;;;;23.40;50.60;;;;;;5107585;28;20427;-67
2022/05/30 13:34:06;;;;;;;;;;;23.60;47.00;;;;;;5106559;28;19923;-67
2022/05/30 13:36:33;;;;;;;;;;;22.90;47.20;;;;;;5107350;28;19950;-69
2022/05/30 13:38:59;;;;;;;;;;;22.30;49.70;;;;;;5107246;28;19904;-68
2022/05/30 13:41:26;;;;;;;;;;;22.10;51.80;;;;;;5109769;28;19908;-68
2022/05/30 13:43:53;;;;;;;;;;;21.50;46.60;;;;;;5091779;28;19911;-66
2022/05/30 13:46:26;;;;;;;;;;;20.90;53.00;;;;;;5125800;27;19942;-66
2022/05/30 13:48:52;;;;;;;;;;;20.50;54.50;;;;;;5109733;28;19904;-66
2022/05/30 13:51:22;;;;;;;;;;;20.80;59.00;;;;;;5109458;28;19903;-66
2022/05/30 13:53:49;;;;;;;;;;;21.60;59.20;;;;;;5109863;28;19956;-67
2022/05/30 13:56:18;;;;;;;;;;;21.60;50.80;;;;;;5111242;28;19904;-67
2022/05/30 13:58:46;;;;;;;;;;;21.60;56.40;;;;;;5110965;28;20280;-66
2022/05/30 14:01:13;;;;;;;;;;;20.80;54.80;;;;;;5111518;28;19908;-67
2022/05/30 14:03:47;;;;;;;;;;;20.40;57.30;;;;;;5111213;28;19915;-66
2022/05/30 14:06:51;;;;;;;;;;;20.00;55.30;;;;;;5111351;28;20358;-66
2022/05/30 14:09:20;;;;;;;;;;;20.00;59.20;;;;;;5028050;28;19995;-67
2022/05/30 14:11:48;;;;;;;;;;;19.40;60.30;;;;;;5027905;28;19915;-66
2022/05/30 14:14:32;;;;;;;;;;;19.50;62.80;;;;;;5069863;28;19908;-66
2022/05/30 14:16:58;;;;;;;;;;;19.20;63.00;;;;;;5092848;28;19927;-67
2022/05/30 14:19:25;;;;;;;;;;;18.80;65.90;;;;;;5110934;28;19911;-66
2022/05/30 14:21:56;;;;;;;;;;;18.40;70.30;;;;;;5110568;28;20352;-67
2022/05/30 14:24:26;;;;;;;;;;;18.50;71.20;;;;;;5111072;28;20462;-67
2022/05/30 14:26:52;;;;;;;;;;;18.60;74.50;;;;;;5110609;28;19949;-66
2022/05/30 14:29:24;;;;;;;;;;;18.20;72.00;;;;;;5110955;28;19936;-67
2022/05/30 14:32:06;;;;;;;;;;;18.40;71.10;;;;;;5110615;28;19915;-67
2022/05/30 14:34:40;;;;;;;;;;;18.00;73.90;;;;;;5110692;28;19968;-67
2022/05/30 14:37:28;;;;;;;;;;;18.00;76.70;;;;;;5110999;28;19907;-67
2022/05/30 14:39:58;;;;;;;;;;;18.00;77.20;;;;;;5102266;28;19904;-67
2022/05/30 14:42:25;;;;;;;;;;;18.00;78.10;;;;;;5110666;28;19916;-65
2022/05/30 14:44:52;;;;;;;;;;;18.30;77.00;;;;;;5110740;28;19903;-66
2022/05/30 14:47:25;;;;;;;;;;;18.00;78.90;;;;;;5110994;28;20007;-67
2022/05/30 14:50:00;;;;;;;;;;;18.10;79.40;;;;;;5110198;28;19939;-66
2022/05/30 14:52:34;;;;;;;;;;;18.20;81.30;;;;;;5110753;28;20002;-66
2022/05/30 14:55:27;;;;;;;;;;;18.20;81.00;;;;;;5110565;28;20188;-66
2022/05/30 14:57:55;;;;;;;;;;;18.30;77.80;;;;;;5107475;28;20576;-68